sensor_id;sensor_type;location;lat;lon;timestamp;P1;durP1;ratioP1;P2;durP2;ratioP2
39066;SDS011;24821;51.988;6.020;2023-02-18T00:00:07;25.38;;;16.50;;
39066;SDS011;24821;51.988;6.020;2023-02-18T00:02:37;22.42;;;16.80;;
39066;SDS011;24821;51.988;6.020;2023-02-18T00:05:03;26.45;;;16.60;;
39066;SDS011;24821;51.988;6.020;2023-02-18T00:07:32;23.55;;;15.45;;
39066;SDS011;24821;51.988;6.020;2023-02-18T00:10:02;23.38;;;15.38;;
39066;SDS011;24821;51.988;6.020;2023-02-18T00:12:29;34.83;;;19.48;;
39066;SDS011;24821;51.988;6.020;2023-02-18T00:14:55;31.58;;;16.20;;
39066;SDS011;24821;51.988;6.020;2023-02-18T00:17:20;28.73;;;17.48;;
39066;SDS011;24821;51.988;6.020;2023-02-18T00:19:46;30.70;;;16.48;;
39066;SDS011;24821;51.988;6.020;2023-02-18T00:22:12;38.63;;;16.00;;
39066;SDS011;24821;51.988;6.020;2023-02-18T00:24:37;29.55;;;17.10;;
39066;SDS011;24821;51.988;6.020;2023-02-18T00:27:03;32.67;;;15.98;;
39066;SDS011;24821;51.988;6.020;2023-02-18T00:29:29;34.78;;;16.05;;
39066;SDS011;24821;51.988;6.020;2023-02-18T00:31:54;25.33;;;15.40;;
39066;SDS011;24821;51.988;6.020;2023-02-18T00:34:20;24.65;;;16.25;;
39066;SDS011;24821;51.988;6.020;2023-02-18T00:36:45;41.30;;;16.08;;
39066;SDS011;24821;51.988;6.020;2023-02-18T00:39:11;27.58;;;16.80;;
39066;SDS011;24821;51.988;6.020;2023-02-18T00:41:37;31.60;;;18.00;;
39066;SDS011;24821;51.988;6.020;2023-02-18T00:44:03;32.33;;;16.83;;
39066;SDS011;24821;51.988;6.020;2023-02-18T00:46:29;31.52;;;18.40;;
39066;SDS011;24821;51.988;6.020;2023-02-18T00:48:55;28.65;;;17.38;;
39066;SDS011;24821;51.988;6.020;2023-02-18T00:51:21;28.05;;;15.93;;
39066;SDS011;24821;51.988;6.020;2023-02-18T00:53:46;42.00;;;19.63;;
39066;SDS011;24821;51.988;6.020;2023-02-18T00:56:13;30.45;;;18.42;;
39066;SDS011;24821;51.988;6.020;2023-02-18T00:58:38;30.55;;;17.67;;
39066;SDS011;24821;51.988;6.020;2023-02-18T01:01:04;28.25;;;18.50;;
39066;SDS011;24821;51.988;6.020;2023-02-18T01:03:31;26.73;;;15.57;;
39066;SDS011;24821;51.988;6.020;2023-02-18T01:05:56;32.47;;;19.30;;
39066;SDS011;24821;51.988;6.020;2023-02-18T01:08:22;28.98;;;15.93;;
39066;SDS011;24821;51.988;6.020;2023-02-18T01:10:48;32.53;;;16.02;;
39066;SDS011;24821;51.988;6.020;2023-02-18T01:13:17;27.20;;;17.90;;
39066;SDS011;24821;51.988;6.020;2023-02-18T01:15:43;25.02;;;16.70;;
39066;SDS011;24821;51.988;6.020;2023-02-18T01:18:10;28.52;;;15.60;;
39066;SDS011;24821;51.988;6.020;2023-02-18T01:20:36;21.40;;;15.65;;
39066;SDS011;24821;51.988;6.020;2023-02-18T01:23:03;28.40;;;17.67;;
39066;SDS011;24821;51.988;6.020;2023-02-18T01:25:29;23.80;;;16.02;;
39066;SDS011;24821;51.988;6.020;2023-02-18T01:27:56;30.75;;;15.10;;
39066;SDS011;24821;51.988;6.020;2023-02-18T01:30:21;26.50;;;17.33;;
39066;SDS011;24821;51.988;6.020;2023-02-18T01:32:47;27.55;;;14.35;;
39066;SDS011;24821;51.988;6.020;2023-02-18T01:35:14;26.40;;;12.45;;
39066;SDS011;24821;51.988;6.020;2023-02-18T01:37:40;22.00;;;13.98;;
39066;SDS011;24821;51.988;6.020;2023-02-18T01:40:07;23.15;;;14.38;;
39066;SDS011;24821;51.988;6.020;2023-02-18T01:42:34;28.55;;;16.63;;
39066;SDS011;24821;51.988;6.020;2023-02-18T01:48:02;22.42;;;15.75;;
39066;SDS011;24821;51.988;6.020;2023-02-18T01:50:29;22.38;;;14.68;;
39066;SDS011;24821;51.988;6.020;2023-02-18T01:52:55;26.60;;;15.35;;
39066;SDS011;24821;51.988;6.020;2023-02-18T01:55:21;19.10;;;14.40;;
39066;SDS011;24821;51.988;6.020;2023-02-18T01:57:47;27.08;;;17.40;;
39066;SDS011;24821;51.988;6.020;2023-02-18T02:00:14;23.33;;;15.73;;
39066;SDS011;24821;51.988;6.020;2023-02-18T02:02:43;32.60;;;17.38;;
39066;SDS011;24821;51.988;6.020;2023-02-18T02:05:11;35.03;;;16.63;;
39066;SDS011;24821;51.988;6.020;2023-02-18T02:07:37;25.83;;;16.50;;
39066;SDS011;24821;51.988;6.020;2023-02-18T02:10:05;33.28;;;16.67;;
39066;SDS011;24821;51.988;6.020;2023-02-18T02:32:43;26.23;;;18.58;;
39066;SDS011;24821;51.988;6.020;2023-02-18T02:35:25;41.85;;;22.02;;
39066;SDS011;24821;51.988;6.020;2023-02-18T02:43:35;37.90;;;21.95;;
39066;SDS011;24821;51.988;6.020;2023-02-18T02:46:20;28.35;;;21.50;;
39066;SDS011;24821;51.988;6.020;2023-02-18T02:48:58;42.00;;;22.73;;
39066;SDS011;24821;51.988;6.020;2023-02-18T02:51:45;30.00;;;20.80;;
39066;SDS011;24821;51.988;6.020;2023-02-18T02:54:23;33.58;;;21.42;;
39066;SDS011;24821;51.988;6.020;2023-02-18T02:57:03;35.30;;;23.50;;
39066;SDS011;24821;51.988;6.020;2023-02-18T02:59:31;34.60;;;23.00;;
39066;SDS011;24821;51.988;6.020;2023-02-18T03:02:17;37.63;;;21.73;;
39066;SDS011;24821;51.988;6.020;2023-02-18T03:05:11;36.00;;;22.42;;
39066;SDS011;24821;51.988;6.020;2023-02-18T03:07:51;39.35;;;21.25;;
39066;SDS011;24821;51.988;6.020;2023-02-18T03:10:31;44.45;;;23.75;;
39066;SDS011;24821;51.988;6.020;2023-02-18T03:13:23;36.15;;;21.50;;
39066;SDS011;24821;51.988;6.020;2023-02-18T03:19:11;36.15;;;20.83;;
39066;SDS011;24821;51.988;6.020;2023-02-18T03:22:04;33.10;;;19.92;;
39066;SDS011;24821;51.988;6.020;2023-02-18T03:24:36;35.92;;;21.92;;
39066;SDS011;24821;51.988;6.020;2023-02-18T03:27:09;38.42;;;21.65;;
39066;SDS011;24821;51.988;6.020;2023-02-18T03:29:39;39.00;;;23.85;;
39066;SDS011;24821;51.988;6.020;2023-02-18T03:32:07;39.92;;;21.33;;
39066;SDS011;24821;51.988;6.020;2023-02-18T03:34:37;37.67;;;18.75;;
39066;SDS011;24821;51.988;6.020;2023-02-18T03:37:07;30.23;;;20.65;;
39066;SDS011;24821;51.988;6.020;2023-02-18T03:39:35;25.65;;;18.33;;
39066;SDS011;24821;51.988;6.020;2023-02-18T03:42:03;26.58;;;16.90;;
39066;SDS011;24821;51.988;6.020;2023-02-18T03:44:29;32.42;;;17.27;;
39066;SDS011;24821;51.988;6.020;2023-02-18T03:46:55;30.65;;;18.35;;
39066;SDS011;24821;51.988;6.020;2023-02-18T03:49:20;24.70;;;15.68;;
39066;SDS011;24821;51.988;6.020;2023-02-18T03:51:46;21.33;;;15.32;;
39066;SDS011;24821;51.988;6.020;2023-02-18T03:54:12;27.67;;;14.30;;
39066;SDS011;24821;51.988;6.020;2023-02-18T03:56:38;22.75;;;13.88;;
39066;SDS011;24821;51.988;6.020;2023-02-18T03:59:04;19.70;;;11.77;;
39066;SDS011;24821;51.988;6.020;2023-02-18T04:01:30;17.48;;;11.88;;
39066;SDS011;24821;51.988;6.020;2023-02-18T04:03:55;21.85;;;12.35;;
39066;SDS011;24821;51.988;6.020;2023-02-18T04:06:21;14.73;;;11.88;;
39066;SDS011;24821;51.988;6.020;2023-02-18T04:08:48;11.80;;;10.27;;
39066;SDS011;24821;51.988;6.020;2023-02-18T04:11:14;16.98;;;9.73;;
39066;SDS011;24821;51.988;6.020;2023-02-18T04:13:39;14.18;;;10.48;;
39066;SDS011;24821;51.988;6.020;2023-02-18T04:16:05;17.30;;;10.52;;
39066;SDS011;24821;51.988;6.020;2023-02-18T04:18:31;14.68;;;10.45;;
39066;SDS011;24821;51.988;6.020;2023-02-18T04:20:56;16.10;;;10.50;;
39066;SDS011;24821;51.988;6.020;2023-02-18T04:23:22;12.38;;;9.98;;
39066;SDS011;24821;51.988;6.020;2023-02-18T04:25:48;13.55;;;10.13;;
39066;SDS011;24821;51.988;6.020;2023-02-18T04:28:14;14.75;;;10.65;;
39066;SDS011;24821;51.988;6.020;2023-02-18T04:30:41;15.10;;;11.55;;
39066;SDS011;24821;51.988;6.020;2023-02-18T04:33:07;14.57;;;11.18;;
39066;SDS011;24821;51.988;6.020;2023-02-18T04:35:33;12.82;;;9.88;;
39066;SDS011;24821;51.988;6.020;2023-02-18T04:37:58;15.02;;;11.77;;
39066;SDS011;24821;51.988;6.020;2023-02-18T04:40:24;17.27;;;11.15;;
39066;SDS011;24821;51.988;6.020;2023-02-18T04:42:53;12.40;;;9.02;;
39066;SDS011;24821;51.988;6.020;2023-02-18T04:45:19;10.90;;;9.02;;
39066;SDS011;24821;51.988;6.020;2023-02-18T04:47:44;11.70;;;8.30;;
39066;SDS011;24821;51.988;6.020;2023-02-18T04:50:10;14.05;;;8.38;;
39066;SDS011;24821;51.988;6.020;2023-02-18T04:52:35;8.95;;;7.75;;
39066;SDS011;24821;51.988;6.020;2023-02-18T04:55:01;8.95;;;7.13;;
39066;SDS011;24821;51.988;6.020;2023-02-18T04:57:27;10.43;;;6.82;;
39066;SDS011;24821;51.988;6.020;2023-02-18T04:59:52;6.50;;;5.72;;
39066;SDS011;24821;51.988;6.020;2023-02-18T05:02:18;10.50;;;6.63;;
39066;SDS011;24821;51.988;6.020;2023-02-18T05:04:43;10.32;;;6.05;;
39066;SDS011;24821;51.988;6.020;2023-02-18T05:07:09;5.75;;;5.20;;
39066;SDS011;24821;51.988;6.020;2023-02-18T05:09:34;6.63;;;5.88;;
39066;SDS011;24821;51.988;6.020;2023-02-18T05:12:00;5.35;;;4.60;;
39066;SDS011;24821;51.988;6.020;2023-02-18T05:14:25;5.45;;;4.88;;
39066;SDS011;24821;51.988;6.020;2023-02-18T05:16:51;7.28;;;5.10;;
39066;SDS011;24821;51.988;6.020;2023-02-18T05:19:16;5.53;;;4.63;;
39066;SDS011;24821;51.988;6.020;2023-02-18T05:21:42;4.53;;;4.13;;
39066;SDS011;24821;51.988;6.020;2023-02-18T05:24:08;4.60;;;4.15;;
39066;SDS011;24821;51.988;6.020;2023-02-18T05:26:34;4.32;;;3.90;;
39066;SDS011;24821;51.988;6.020;2023-02-18T05:28:59;7.43;;;5.43;;
39066;SDS011;24821;51.988;6.020;2023-02-18T05:31:25;5.10;;;4.60;;
39066;SDS011;24821;51.988;6.020;2023-02-18T05:33:50;4.85;;;4.35;;
39066;SDS011;24821;51.988;6.020;2023-02-18T05:36:16;4.97;;;4.57;;
39066;SDS011;24821;51.988;6.020;2023-02-18T05:38:42;7.32;;;4.55;;
39066;SDS011;24821;51.988;6.020;2023-02-18T05:41:07;4.03;;;3.72;;
39066;SDS011;24821;51.988;6.020;2023-02-18T05:43:33;5.40;;;4.85;;
39066;SDS011;24821;51.988;6.020;2023-02-18T05:46:18;5.05;;;3.60;;
39066;SDS011;24821;51.988;6.020;2023-02-18T05:48:44;3.35;;;3.15;;
39066;SDS011;24821;51.988;6.020;2023-02-18T05:51:09;4.80;;;3.70;;
39066;SDS011;24821;51.988;6.020;2023-02-18T05:53:35;4.25;;;3.05;;
39066;SDS011;24821;51.988;6.020;2023-02-18T05:56:00;4.25;;;3.40;;
39066;SDS011;24821;51.988;6.020;2023-02-18T05:58:26;4.13;;;3.78;;
39066;SDS011;24821;51.988;6.020;2023-02-18T06:00:51;4.93;;;3.85;;
39066;SDS011;24821;51.988;6.020;2023-02-18T06:03:17;6.80;;;3.67;;
39066;SDS011;24821;51.988;6.020;2023-02-18T06:05:42;3.13;;;2.83;;
39066;SDS011;24821;51.988;6.020;2023-02-18T06:08:08;3.15;;;2.92;;
39066;SDS011;24821;51.988;6.020;2023-02-18T06:10:33;2.97;;;2.15;;
39066;SDS011;24821;51.988;6.020;2023-02-18T06:12:59;3.17;;;2.88;;
39066;SDS011;24821;51.988;6.020;2023-02-18T06:15:26;3.22;;;2.95;;
39066;SDS011;24821;51.988;6.020;2023-02-18T06:17:52;3.25;;;3.05;;
39066;SDS011;24821;51.988;6.020;2023-02-18T06:20:18;2.47;;;2.28;;
39066;SDS011;24821;51.988;6.020;2023-02-18T06:22:44;5.03;;;3.35;;
39066;SDS011;24821;51.988;6.020;2023-02-18T06:25:09;2.50;;;2.30;;
39066;SDS011;24821;51.988;6.020;2023-02-18T06:27:35;2.58;;;2.38;;
39066;SDS011;24821;51.988;6.020;2023-02-18T06:30:00;3.25;;;2.70;;
39066;SDS011;24821;51.988;6.020;2023-02-18T06:32:26;4.78;;;3.78;;
39066;SDS011;24821;51.988;6.020;2023-02-18T06:34:51;4.15;;;3.85;;
39066;SDS011;24821;51.988;6.020;2023-02-18T06:37:17;3.65;;;3.22;;
39066;SDS011;24821;51.988;6.020;2023-02-18T06:39:42;4.32;;;3.92;;
39066;SDS011;24821;51.988;6.020;2023-02-18T06:42:08;5.32;;;3.85;;
39066;SDS011;24821;51.988;6.020;2023-02-18T06:44:33;4.53;;;3.28;;
39066;SDS011;24821;51.988;6.020;2023-02-18T06:46:59;4.88;;;3.67;;
39066;SDS011;24821;51.988;6.020;2023-02-18T06:49:24;3.55;;;3.13;;
39066;SDS011;24821;51.988;6.020;2023-02-18T06:51:50;3.75;;;3.47;;
39066;SDS011;24821;51.988;6.020;2023-02-18T06:54:16;3.85;;;3.55;;
39066;SDS011;24821;51.988;6.020;2023-02-18T06:56:41;3.08;;;2.88;;
39066;SDS011;24821;51.988;6.020;2023-02-18T06:59:07;3.55;;;3.25;;
39066;SDS011;24821;51.988;6.020;2023-02-18T07:01:32;3.75;;;3.45;;
39066;SDS011;24821;51.988;6.020;2023-02-18T07:03:58;3.50;;;2.95;;
39066;SDS011;24821;51.988;6.020;2023-02-18T07:06:23;5.35;;;3.25;;
39066;SDS011;24821;51.988;6.020;2023-02-18T07:08:49;2.97;;;2.70;;
39066;SDS011;24821;51.988;6.020;2023-02-18T07:11:15;3.03;;;2.75;;
39066;SDS011;24821;51.988;6.020;2023-02-18T07:13:40;5.03;;;3.33;;
39066;SDS011;24821;51.988;6.020;2023-02-18T07:16:06;3.25;;;2.95;;
39066;SDS011;24821;51.988;6.020;2023-02-18T07:18:31;3.15;;;2.80;;
39066;SDS011;24821;51.988;6.020;2023-02-18T07:20:57;3.85;;;3.08;;
39066;SDS011;24821;51.988;6.020;2023-02-18T07:23:22;3.20;;;2.58;;
39066;SDS011;24821;51.988;6.020;2023-02-18T07:25:48;3.22;;;2.97;;
39066;SDS011;24821;51.988;6.020;2023-02-18T07:28:13;9.95;;;4.75;;
39066;SDS011;24821;51.988;6.020;2023-02-18T07:30:39;5.40;;;3.55;;
39066;SDS011;24821;51.988;6.020;2023-02-18T07:33:05;4.25;;;3.80;;
39066;SDS011;24821;51.988;6.020;2023-02-18T07:35:31;6.85;;;4.20;;
39066;SDS011;24821;51.988;6.020;2023-02-18T07:37:56;5.55;;;5.05;;
39066;SDS011;24821;51.988;6.020;2023-02-18T07:40:22;5.35;;;3.45;;
39066;SDS011;24821;51.988;6.020;2023-02-18T07:42:48;5.72;;;3.83;;
39066;SDS011;24821;51.988;6.020;2023-02-18T07:45:14;4.10;;;3.80;;
39066;SDS011;24821;51.988;6.020;2023-02-18T07:47:39;4.15;;;3.75;;
39066;SDS011;24821;51.988;6.020;2023-02-18T07:50:06;3.90;;;3.60;;
39066;SDS011;24821;51.988;6.020;2023-02-18T07:52:33;4.05;;;3.65;;
39066;SDS011;24821;51.988;6.020;2023-02-18T07:54:58;6.15;;;4.63;;
39066;SDS011;24821;51.988;6.020;2023-02-18T07:57:24;5.53;;;4.80;;
39066;SDS011;24821;51.988;6.020;2023-02-18T07:59:50;10.40;;;3.85;;
39066;SDS011;24821;51.988;6.020;2023-02-18T08:02:17;3.63;;;3.22;;
39066;SDS011;24821;51.988;6.020;2023-02-18T08:04:47;6.72;;;3.80;;
39066;SDS011;24821;51.988;6.020;2023-02-18T08:07:16;6.07;;;4.03;;
39066;SDS011;24821;51.988;6.020;2023-02-18T08:09:43;4.15;;;3.80;;
39066;SDS011;24821;51.988;6.020;2023-02-18T08:12:08;10.35;;;4.35;;
39066;SDS011;24821;51.988;6.020;2023-02-18T08:14:34;5.38;;;3.85;;
39066;SDS011;24821;51.988;6.020;2023-02-18T08:17:00;11.85;;;4.55;;
39066;SDS011;24821;51.988;6.020;2023-02-18T08:19:25;10.65;;;3.70;;
39066;SDS011;24821;51.988;6.020;2023-02-18T08:21:51;5.35;;;3.22;;
39066;SDS011;24821;51.988;6.020;2023-02-18T08:24:16;2.70;;;2.50;;
39066;SDS011;24821;51.988;6.020;2023-02-18T08:26:42;8.15;;;4.07;;
39066;SDS011;24821;51.988;6.020;2023-02-18T08:29:08;7.00;;;3.88;;
39066;SDS011;24821;51.988;6.020;2023-02-18T08:31:33;3.33;;;2.55;;
39066;SDS011;24821;51.988;6.020;2023-02-18T08:33:59;6.88;;;3.58;;
39066;SDS011;24821;51.988;6.020;2023-02-18T08:36:27;14.23;;;4.25;;
39066;SDS011;24821;51.988;6.020;2023-02-18T08:38:54;6.53;;;3.20;;
39066;SDS011;24821;51.988;6.020;2023-02-18T08:41:20;5.22;;;3.25;;
39066;SDS011;24821;51.988;6.020;2023-02-18T08:43:46;5.53;;;4.03;;
39066;SDS011;24821;51.988;6.020;2023-02-18T08:46:12;11.23;;;4.25;;
39066;SDS011;24821;51.988;6.020;2023-02-18T08:48:39;3.65;;;3.30;;
39066;SDS011;24821;51.988;6.020;2023-02-18T08:51:18;5.13;;;3.80;;
39066;SDS011;24821;51.988;6.020;2023-02-18T08:53:45;6.28;;;4.00;;
39066;SDS011;24821;51.988;6.020;2023-02-18T08:56:11;9.00;;;4.47;;
39066;SDS011;24821;51.988;6.020;2023-02-18T08:58:38;14.63;;;5.55;;
39066;SDS011;24821;51.988;6.020;2023-02-18T09:01:05;12.30;;;5.53;;
39066;SDS011;24821;51.988;6.020;2023-02-18T09:03:32;8.10;;;4.97;;
39066;SDS011;24821;51.988;6.020;2023-02-18T09:05:59;5.68;;;4.43;;
39066;SDS011;24821;51.988;6.020;2023-02-18T09:08:25;10.65;;;4.90;;
39066;SDS011;24821;51.988;6.020;2023-02-18T09:10:57;5.68;;;3.92;;
39066;SDS011;24821;51.988;6.020;2023-02-18T09:15:57;11.75;;;4.55;;
39066;SDS011;24821;51.988;6.020;2023-02-18T09:18:24;4.75;;;2.90;;
39066;SDS011;24821;51.988;6.020;2023-02-18T09:20:50;6.45;;;2.83;;
39066;SDS011;24821;51.988;6.020;2023-02-18T09:23:16;4.32;;;2.25;;
39066;SDS011;24821;51.988;6.020;2023-02-18T09:25:41;7.53;;;3.10;;
39066;SDS011;24821;51.988;6.020;2023-02-18T09:28:07;9.20;;;3.13;;
39066;SDS011;24821;51.988;6.020;2023-02-18T09:30:33;6.97;;;3.38;;
39066;SDS011;24821;51.988;6.020;2023-02-18T09:32:58;5.30;;;2.38;;
39066;SDS011;24821;51.988;6.020;2023-02-18T09:35:24;9.13;;;3.30;;
39066;SDS011;24821;51.988;6.020;2023-02-18T09:37:49;8.27;;;3.13;;
39066;SDS011;24821;51.988;6.020;2023-02-18T09:40:21;4.80;;;3.47;;
39066;SDS011;24821;51.988;6.020;2023-02-18T09:42:52;5.15;;;2.67;;
39066;SDS011;24821;51.988;6.020;2023-02-18T09:45:19;5.22;;;2.92;;
39066;SDS011;24821;51.988;6.020;2023-02-18T09:47:45;14.90;;;3.10;;
39066;SDS011;24821;51.988;6.020;2023-02-18T09:50:19;5.50;;;2.67;;
39066;SDS011;24821;51.988;6.020;2023-02-18T09:52:51;9.20;;;3.95;;
39066;SDS011;24821;51.988;6.020;2023-02-18T09:55:27;6.80;;;2.17;;
39066;SDS011;24821;51.988;6.020;2023-02-18T09:57:56;11.20;;;2.70;;
39066;SDS011;24821;51.988;6.020;2023-02-18T10:00:31;5.20;;;2.30;;
39066;SDS011;24821;51.988;6.020;2023-02-18T10:03:19;6.53;;;2.95;;
39066;SDS011;24821;51.988;6.020;2023-02-18T10:06:09;9.38;;;2.90;;
39066;SDS011;24821;51.988;6.020;2023-02-18T10:08:41;7.68;;;2.35;;
39066;SDS011;24821;51.988;6.020;2023-02-18T10:11:10;5.45;;;2.17;;
39066;SDS011;24821;51.988;6.020;2023-02-18T10:13:40;5.25;;;2.83;;
39066;SDS011;24821;51.988;6.020;2023-02-18T10:16:07;13.45;;;2.65;;
39066;SDS011;24821;51.988;6.020;2023-02-18T10:18:40;4.93;;;2.65;;
39066;SDS011;24821;51.988;6.020;2023-02-18T10:21:10;2.20;;;1.90;;
39066;SDS011;24821;51.988;6.020;2023-02-18T10:23:39;9.88;;;2.55;;
39066;SDS011;24821;51.988;6.020;2023-02-18T10:26:11;6.68;;;2.75;;
39066;SDS011;24821;51.988;6.020;2023-02-18T10:28:40;3.60;;;3.15;;
39066;SDS011;24821;51.988;6.020;2023-02-18T10:31:06;14.75;;;3.38;;
39066;SDS011;24821;51.988;6.020;2023-02-18T10:33:41;5.65;;;2.63;;
39066;SDS011;24821;51.988;6.020;2023-02-18T10:36:25;4.30;;;2.47;;
39066;SDS011;24821;51.988;6.020;2023-02-18T10:50:27;9.75;;;2.72;;
39066;SDS011;24821;51.988;6.020;2023-02-18T10:52:58;5.10;;;1.88;;
39066;SDS011;24821;51.988;6.020;2023-02-18T10:55:36;5.70;;;2.80;;
39066;SDS011;24821;51.988;6.020;2023-02-18T10:58:09;8.60;;;3.38;;
39066;SDS011;24821;51.988;6.020;2023-02-18T11:00:47;5.78;;;2.90;;
39066;SDS011;24821;51.988;6.020;2023-02-18T11:03:15;7.60;;;3.08;;
39066;SDS011;24821;51.988;6.020;2023-02-18T11:05:44;9.75;;;3.80;;
39066;SDS011;24821;51.988;6.020;2023-02-18T11:08:22;7.88;;;3.95;;
39066;SDS011;24821;51.988;6.020;2023-02-18T11:10:50;10.07;;;3.47;;
39066;SDS011;24821;51.988;6.020;2023-02-18T11:13:21;6.22;;;2.47;;
39066;SDS011;24821;51.988;6.020;2023-02-18T11:15:58;4.53;;;2.70;;
39066;SDS011;24821;51.988;6.020;2023-02-18T11:21:03;7.80;;;3.13;;
39066;SDS011;24821;51.988;6.020;2023-02-18T11:23:31;6.93;;;2.83;;
39066;SDS011;24821;51.988;6.020;2023-02-18T11:26:10;3.42;;;2.47;;
39066;SDS011;24821;51.988;6.020;2023-02-18T11:28:40;3.15;;;2.92;;
39066;SDS011;24821;51.988;6.020;2023-02-18T11:31:15;5.50;;;2.25;;
39066;SDS011;24821;51.988;6.020;2023-02-18T11:33:49;7.03;;;3.83;;
39066;SDS011;24821;51.988;6.020;2023-02-18T11:38:50;4.10;;;2.70;;
39066;SDS011;24821;51.988;6.020;2023-02-18T11:41:20;9.98;;;3.22;;
39066;SDS011;24821;51.988;6.020;2023-02-18T11:46:31;8.13;;;3.33;;
39066;SDS011;24821;51.988;6.020;2023-02-18T11:48:57;6.75;;;3.40;;
39066;SDS011;24821;51.988;6.020;2023-02-18T11:51:44;15.10;;;3.75;;
39066;SDS011;24821;51.988;6.020;2023-02-18T11:54:25;4.70;;;3.13;;
39066;SDS011;24821;51.988;6.020;2023-02-18T11:57:04;5.57;;;3.20;;
39066;SDS011;24821;51.988;6.020;2023-02-18T11:59:34;3.55;;;2.90;;
39066;SDS011;24821;51.988;6.020;2023-02-18T12:04:41;2.85;;;2.65;;
39066;SDS011;24821;51.988;6.020;2023-02-18T12:07:12;3.92;;;3.08;;
39066;SDS011;24821;51.988;6.020;2023-02-18T12:09:59;5.13;;;3.78;;
39066;SDS011;24821;51.988;6.020;2023-02-18T12:12:30;11.40;;;4.55;;
39066;SDS011;24821;51.988;6.020;2023-02-18T12:14:59;11.90;;;4.53;;
39066;SDS011;24821;51.988;6.020;2023-02-18T12:17:44;6.10;;;4.13;;
39066;SDS011;24821;51.988;6.020;2023-02-18T12:20:21;6.28;;;4.15;;
39066;SDS011;24821;51.988;6.020;2023-02-18T12:28:30;6.60;;;4.60;;
39066;SDS011;24821;51.988;6.020;2023-02-18T12:31:12;6.82;;;3.08;;
39066;SDS011;24821;51.988;6.020;2023-02-18T12:42:44;6.32;;;4.30;;
39066;SDS011;24821;51.988;6.020;2023-02-18T12:48:37;8.45;;;3.90;;
39066;SDS011;24821;51.988;6.020;2023-02-18T12:56:53;10.80;;;4.68;;
39066;SDS011;24821;51.988;6.020;2023-02-18T13:08:07;11.05;;;6.50;;
39066;SDS011;24821;51.988;6.020;2023-02-18T13:13:33;9.82;;;5.30;;
39066;SDS011;24821;51.988;6.020;2023-02-18T13:16:12;7.18;;;5.13;;
39066;SDS011;24821;51.988;6.020;2023-02-18T13:18:42;4.93;;;4.53;;
39066;SDS011;24821;51.988;6.020;2023-02-18T13:21:12;9.93;;;6.22;;
39066;SDS011;24821;51.988;6.020;2023-02-18T13:24:25;11.35;;;5.25;;
39066;SDS011;24821;51.988;6.020;2023-02-18T13:26:30;5.28;;;4.80;;
39066;SDS011;24821;51.988;6.020;2023-02-18T13:29:04;10.90;;;5.32;;
39066;SDS011;24821;51.988;6.020;2023-02-18T13:34:47;5.78;;;5.22;;
39066;SDS011;24821;51.988;6.020;2023-02-18T13:39:54;8.43;;;5.68;;
39066;SDS011;24821;51.988;6.020;2023-02-18T13:47:41;8.85;;;7.15;;
39066;SDS011;24821;51.988;6.020;2023-02-18T13:52:46;9.30;;;7.65;;
39066;SDS011;24821;51.988;6.020;2023-02-18T13:55:19;7.20;;;6.45;;
39066;SDS011;24821;51.988;6.020;2023-02-18T13:57:48;12.02;;;7.28;;
39066;SDS011;24821;51.988;6.020;2023-02-18T14:00:21;9.50;;;7.28;;
39066;SDS011;24821;51.988;6.020;2023-02-18T14:02:58;6.95;;;6.38;;
39066;SDS011;24821;51.988;6.020;2023-02-18T14:05:37;7.30;;;6.68;;
39066;SDS011;24821;51.988;6.020;2023-02-18T14:08:10;7.60;;;6.75;;
39066;SDS011;24821;51.988;6.020;2023-02-18T14:10:38;9.20;;;6.07;;
39066;SDS011;24821;51.988;6.020;2023-02-18T14:13:24;8.52;;;6.80;;
39066;SDS011;24821;51.988;6.020;2023-02-18T14:16:03;7.28;;;6.47;;
39066;SDS011;24821;51.988;6.020;2023-02-18T14:18:30;7.97;;;6.20;;
39066;SDS011;24821;51.988;6.020;2023-02-18T14:23:38;10.98;;;6.63;;
39066;SDS011;24821;51.988;6.020;2023-02-18T14:36:35;11.18;;;6.45;;
39066;SDS011;24821;51.988;6.020;2023-02-18T14:39:10;7.95;;;5.47;;
39066;SDS011;24821;51.988;6.020;2023-02-18T14:50:09;14.73;;;6.43;;
39066;SDS011;24821;51.988;6.020;2023-02-18T14:52:42;9.50;;;6.35;;
39066;SDS011;24821;51.988;6.020;2023-02-18T14:57:49;6.78;;;5.95;;
39066;SDS011;24821;51.988;6.020;2023-02-18T15:00:19;6.80;;;5.90;;
39066;SDS011;24821;51.988;6.020;2023-02-18T15:02:48;10.77;;;6.15;;
39066;SDS011;24821;51.988;6.020;2023-02-18T15:05:19;7.53;;;6.88;;
39066;SDS011;24821;51.988;6.020;2023-02-18T15:08:03;12.73;;;6.47;;
39066;SDS011;24821;51.988;6.020;2023-02-18T15:15:58;7.38;;;5.95;;
39066;SDS011;24821;51.988;6.020;2023-02-18T15:18:28;9.07;;;6.32;;
39066;SDS011;24821;51.988;6.020;2023-02-18T15:21:05;10.95;;;6.78;;
39066;SDS011;24821;51.988;6.020;2023-02-18T15:23:36;5.95;;;5.55;;
39066;SDS011;24821;51.988;6.020;2023-02-18T15:26:03;8.77;;;6.47;;
39066;SDS011;24821;51.988;6.020;2023-02-18T15:28:31;10.10;;;6.55;;
39066;SDS011;24821;51.988;6.020;2023-02-18T15:31:01;8.57;;;6.47;;
39066;SDS011;24821;51.988;6.020;2023-02-18T15:33:28;10.93;;;5.95;;
39066;SDS011;24821;51.988;6.020;2023-02-18T15:36:04;12.35;;;6.95;;
39066;SDS011;24821;51.988;6.020;2023-02-18T15:38:30;6.43;;;5.85;;
39066;SDS011;24821;51.988;6.020;2023-02-18T15:40:57;9.65;;;6.47;;
39066;SDS011;24821;51.988;6.020;2023-02-18T15:43:24;12.70;;;5.75;;
39066;SDS011;24821;51.988;6.020;2023-02-18T15:45:52;9.30;;;6.05;;
39066;SDS011;24821;51.988;6.020;2023-02-18T15:48:24;14.82;;;5.65;;
39066;SDS011;24821;51.988;6.020;2023-02-18T15:51:03;9.80;;;5.97;;
39066;SDS011;24821;51.988;6.020;2023-02-18T15:53:30;7.07;;;5.78;;
39066;SDS011;24821;51.988;6.020;2023-02-18T15:56:04;7.18;;;6.40;;
39066;SDS011;24821;51.988;6.020;2023-02-18T15:58:33;5.97;;;5.28;;
39066;SDS011;24821;51.988;6.020;2023-02-18T16:01:00;11.18;;;5.82;;
39066;SDS011;24821;51.988;6.020;2023-02-18T16:03:43;13.70;;;6.25;;
39066;SDS011;24821;51.988;6.020;2023-02-18T16:09:06;12.55;;;4.50;;
39066;SDS011;24821;51.988;6.020;2023-02-18T16:14:28;7.45;;;5.95;;
39066;SDS011;24821;51.988;6.020;2023-02-18T16:17:02;5.05;;;4.65;;
39066;SDS011;24821;51.988;6.020;2023-02-18T16:19:31;7.43;;;5.50;;
39066;SDS011;24821;51.988;6.020;2023-02-18T16:21:57;12.07;;;5.93;;
39066;SDS011;24821;51.988;6.020;2023-02-18T16:24:30;11.77;;;6.97;;
39066;SDS011;24821;51.988;6.020;2023-02-18T16:26:59;11.27;;;7.18;;
39066;SDS011;24821;51.988;6.020;2023-02-18T16:29:26;10.98;;;5.88;;
39066;SDS011;24821;51.988;6.020;2023-02-18T16:32:00;7.47;;;5.07;;
39066;SDS011;24821;51.988;6.020;2023-02-18T16:34:25;8.75;;;6.25;;
39066;SDS011;24821;51.988;6.020;2023-02-18T16:36:51;6.18;;;5.57;;
39066;SDS011;24821;51.988;6.020;2023-02-18T16:39:36;5.53;;;4.97;;
39066;SDS011;24821;51.988;6.020;2023-02-18T16:42:02;12.23;;;4.53;;
39066;SDS011;24821;51.988;6.020;2023-02-18T16:44:33;12.93;;;5.90;;
39066;SDS011;24821;51.988;6.020;2023-02-18T16:46:59;10.95;;;5.80;;
39066;SDS011;24821;51.988;6.020;2023-02-18T16:49:25;7.03;;;5.55;;
39066;SDS011;24821;51.988;6.020;2023-02-18T16:51:52;6.15;;;4.28;;
39066;SDS011;24821;51.988;6.020;2023-02-18T16:54:18;6.13;;;4.90;;
39066;SDS011;24821;51.988;6.020;2023-02-18T16:56:43;6.93;;;5.10;;
39066;SDS011;24821;51.988;6.020;2023-02-18T16:59:09;7.90;;;6.18;;
39066;SDS011;24821;51.988;6.020;2023-02-18T17:01:35;12.75;;;6.25;;
39066;SDS011;24821;51.988;6.020;2023-02-18T17:04:09;9.23;;;5.13;;
39066;SDS011;24821;51.988;6.020;2023-02-18T17:06:36;11.40;;;5.68;;
39066;SDS011;24821;51.988;6.020;2023-02-18T17:09:05;10.38;;;5.43;;